createdAt,value
2022-11-27T00:00:43.236Z,41.23
2022-11-27T00:03:11.099Z,43.37
2022-11-27T00:05:40.367Z,45.50
2022-11-27T00:08:08.184Z,83.97
2022-11-27T00:10:36.193Z,76.00
2022-11-27T00:13:03.948Z,85.70
2022-11-27T00:15:31.843Z,69.77
2022-11-27T00:17:59.855Z,82.03
2022-11-27T00:20:29.862Z,56.50
2022-11-27T00:22:59.416Z,48.83
2022-11-27T00:25:27.514Z,33.10
2022-11-27T00:27:55.406Z,32.93
2022-11-27T00:30:23.551Z,28.97
2022-11-27T00:32:51.295Z,28.87
2022-11-27T00:35:19.173Z,35.87
2022-11-27T00:37:46.965Z,40.50
2022-11-27T00:40:16.748Z,34.73
2022-11-27T00:42:44.547Z,48.90
2022-11-27T00:45:13.567Z,147.93
2022-11-27T00:47:41.572Z,119.97
2022-11-27T00:50:10.398Z,130.13
2022-11-27T00:52:38.340Z,105.77
2022-11-27T00:55:07.386Z,123.73
2022-11-27T00:57:37.028Z,87.47
2022-11-27T01:00:08.521Z,66.90
2022-11-27T01:02:36.517Z,83.67
2022-11-27T01:05:04.420Z,47.50
2022-11-27T01:07:32.386Z,116.37
2022-11-27T01:10:00.460Z,62.37
2022-11-27T01:12:28.325Z,62.67
2022-11-27T01:14:57.668Z,60.33
2022-11-27T01:17:25.735Z,54.20
2022-11-27T01:19:53.574Z,79.73
2022-11-27T01:22:21.342Z,75.03
2022-11-27T01:24:49.203Z,43.07
2022-11-27T01:27:19.241Z,34.10
2022-11-27T01:29:47.124Z,73.10
2022-11-27T01:32:16.404Z,46.00
2022-11-27T01:34:44.355Z,44.93
2022-11-27T01:37:12.025Z,40.90
2022-11-27T01:39:40.026Z,31.60
2022-11-27T01:42:07.815Z,47.50
2022-11-27T01:44:52.049Z,72.50
2022-11-27T01:47:30.703Z,36.30
2022-11-27T01:50:08.233Z,105.73
2022-11-27T01:52:40.689Z,67.47
2022-11-27T01:55:13.614Z,39.63
2022-11-27T01:57:44.715Z,32.00
2022-11-27T02:00:15.666Z,64.80
2022-11-27T02:02:46.246Z,101.77
2022-11-27T02:05:16.991Z,30.13
2022-11-27T02:07:45.251Z,65.10
2022-11-27T02:10:14.421Z,78.90
2022-11-27T02:12:51.873Z,97.80
2022-11-27T02:15:26.318Z,38.83
2022-11-27T02:18:04.490Z,93.43
2022-11-27T02:20:45.111Z,19.20
2022-11-27T02:23:37.554Z,23.83
2022-11-27T02:26:39.329Z,32.07
2022-11-27T02:29:10.747Z,46.57
2022-11-27T02:31:43.050Z,50.57
2022-11-27T02:34:19.725Z,35.50
2022-11-27T02:36:54.349Z,59.77
2022-11-27T02:39:28.683Z,34.93
2022-11-27T02:42:00.300Z,20.50
2022-11-27T02:44:34.797Z,20.70
2022-11-27T02:47:06.673Z,24.23
2022-11-27T02:49:37.406Z,26.07
2022-11-27T02:52:08.282Z,17.23
2022-11-27T02:54:36.466Z,35.50
2022-11-27T02:57:06.550Z,37.87
2022-11-27T02:59:39.289Z,27.20
2022-11-27T03:02:10.997Z,13.50
2022-11-27T03:04:43.523Z,208.17
2022-11-27T03:07:16.075Z,50.80
2022-11-27T03:09:47.692Z,49.83
2022-11-27T03:12:19.690Z,25.33
2022-11-27T03:14:50.227Z,45.37
2022-11-27T03:17:32.898Z,57.27
2022-11-27T03:20:08.596Z,20.83
2022-11-27T03:22:36.599Z,24.83
2022-11-27T03:25:04.789Z,17.70
2022-11-27T03:27:36.689Z,20.30
2022-11-27T03:30:09.079Z,15.57
2022-11-27T03:32:37.063Z,12.63
2022-11-27T03:35:07.095Z,19.27
2022-11-27T03:37:34.947Z,14.80
2022-11-27T03:40:03.735Z,11.40
2022-11-27T03:42:38.530Z,74.77
2022-11-27T03:45:13.570Z,14.53
2022-11-27T03:47:53.292Z,17.43
2022-11-27T03:50:32.378Z,25.63
2022-11-27T03:53:10.153Z,17.30
2022-11-27T03:55:44.546Z,22.47
2022-11-27T03:58:18.851Z,44.47
2022-11-27T04:00:51.419Z,40.43
2022-11-27T04:03:25.104Z,49.90
2022-11-27T04:05:53.400Z,25.33
2022-11-27T04:08:21.238Z,18.20
2022-11-27T04:10:49.311Z,21.03
2022-11-27T04:13:17.354Z,50.23
2022-11-27T04:15:45.249Z,34.67
2022-11-27T04:18:14.447Z,21.63
2022-11-27T04:20:42.388Z,16.57
2022-11-27T04:23:10.693Z,19.73
2022-11-27T04:25:38.802Z,17.10
2022-11-27T04:28:06.950Z,16.00
2022-11-27T04:30:35.699Z,15.03
2022-11-27T04:33:03.918Z,13.03
2022-11-27T04:35:33.537Z,15.00
2022-11-27T04:38:01.601Z,22.33
2022-11-27T04:40:29.721Z,14.50
2022-11-27T04:42:57.893Z,15.30
2022-11-27T04:45:25.981Z,15.50
2022-11-27T04:47:53.977Z,18.27
2022-11-27T04:50:22.191Z,14.13
2022-11-27T04:52:51.656Z,19.43
2022-11-27T04:55:19.876Z,17.90
2022-11-27T04:57:48.116Z,31.47
2022-11-27T05:00:17.101Z,22.63
2022-11-27T05:02:45.226Z,20.43
2022-11-27T05:05:13.455Z,36.30
2022-11-27T05:07:41.484Z,18.93
2022-11-27T05:10:11.777Z,20.20
2022-11-27T05:12:39.947Z,16.20
2022-11-27T05:15:09.516Z,13.77
2022-11-27T05:17:37.657Z,17.70
2022-11-27T05:20:07.185Z,28.57
2022-11-27T05:22:35.389Z,18.03
2022-11-27T05:25:03.475Z,20.63
2022-11-27T05:27:33.136Z,19.93
2022-11-27T05:30:01.247Z,31.40
2022-11-27T05:32:29.381Z,17.13
2022-11-27T05:34:57.632Z,18.73
2022-11-27T05:37:26.180Z,16.17
2022-11-27T05:39:54.142Z,20.60
2022-11-27T05:42:22.555Z,25.67
2022-11-27T05:44:57.797Z,17.80
2022-11-27T05:47:26.788Z,14.93
2022-11-27T05:49:55.192Z,12.50
2022-11-27T05:52:23.546Z,12.47
2022-11-27T05:54:51.720Z,19.07
2022-11-27T05:57:19.721Z,15.80
2022-11-27T05:59:48.075Z,16.13
2022-11-27T06:02:22.636Z,18.13
2022-11-27T06:04:53.265Z,17.50
2022-11-27T06:07:21.455Z,21.03
2022-11-27T06:09:49.707Z,18.43
2022-11-27T06:12:17.873Z,15.30
2022-11-27T06:14:46.012Z,15.03
2022-11-27T06:17:16.847Z,19.60
2022-11-27T06:19:46.653Z,15.10
2022-11-27T06:22:14.656Z,14.60
2022-11-27T06:24:43.031Z,12.60
2022-11-27T06:27:11.360Z,17.83
2022-11-27T06:29:39.400Z,13.30
2022-11-27T06:32:07.770Z,14.57
2022-11-27T06:34:35.987Z,13.47
2022-11-27T06:37:09.183Z,13.83
2022-11-27T06:39:38.539Z,14.47
2022-11-27T06:42:06.718Z,16.50
2022-11-27T06:44:34.774Z,15.87
2022-11-27T06:47:03.318Z,14.20
2022-11-27T06:49:31.531Z,15.10
2022-11-27T06:51:59.673Z,15.53
2022-11-27T06:54:29.459Z,15.13
2022-11-27T06:56:58.725Z,14.60
2022-11-27T06:59:26.773Z,14.03
2022-11-27T07:01:54.946Z,16.60
2022-11-27T07:04:24.334Z,15.33
2022-11-27T07:06:54.984Z,14.47
2022-11-27T07:09:23.023Z,14.53
2022-11-27T07:11:53.127Z,16.00
2022-11-27T07:14:21.351Z,14.43
2022-11-27T07:16:49.417Z,17.10
2022-11-27T07:19:17.523Z,15.87
2022-11-27T07:21:45.633Z,21.40
2022-11-27T07:24:13.723Z,20.07
2022-11-27T07:26:41.821Z,16.63
2022-11-27T07:29:11.398Z,16.20
2022-11-27T07:31:39.564Z,19.03
2022-11-27T07:34:14.049Z,16.70
2022-11-27T07:36:44.295Z,19.87
2022-11-27T07:39:12.362Z,17.03
2022-11-27T07:41:40.516Z,16.10
2022-11-27T07:44:09.099Z,20.70
2022-11-27T07:46:38.711Z,21.60
2022-11-27T07:49:07.053Z,19.63
2022-11-27T07:51:35.070Z,23.80
2022-11-27T07:54:03.226Z,20.50
2022-11-27T07:56:31.845Z,24.07
2022-11-27T07:58:59.907Z,22.80
2022-11-27T08:01:28.068Z,21.30
2022-11-27T08:03:57.764Z,22.13
2022-11-27T08:06:27.586Z,22.60
2022-11-27T08:08:57.159Z,21.53
2022-11-27T08:11:27.356Z,21.07
2022-11-27T08:13:58.332Z,19.13
2022-11-27T08:16:28.338Z,23.97
2022-11-27T08:18:58.523Z,20.80
2022-11-27T08:21:29.967Z,23.10
2022-11-27T08:23:58.901Z,14.57
2022-11-27T08:26:29.680Z,19.47
2022-11-27T08:28:58.556Z,14.67
2022-11-27T08:31:31.829Z,15.00
2022-11-27T08:34:03.046Z,14.03
2022-11-27T08:36:32.011Z,15.90
2022-11-27T08:39:00.384Z,11.90
2022-11-27T08:41:32.483Z,13.60
2022-11-27T08:44:01.504Z,12.70
2022-11-27T08:46:31.034Z,12.03
2022-11-27T08:49:02.149Z,11.07
2022-11-27T08:51:30.932Z,13.50
2022-11-27T08:53:59.300Z,10.87
2022-11-27T08:56:29.126Z,9.40
2022-11-27T08:58:59.750Z,11.73
2022-11-27T09:01:29.803Z,10.87
2022-11-27T09:04:00.870Z,14.03
2022-11-27T09:06:33.346Z,18.80
2022-11-27T09:09:02.814Z,14.73
2022-11-27T09:11:33.153Z,14.83
2022-11-27T09:14:03.642Z,14.13
2022-11-27T09:16:31.934Z,11.60
2022-11-27T09:19:02.952Z,11.27
2022-11-27T09:21:33.209Z,12.93
2022-11-27T09:24:03.550Z,14.23
2022-11-27T09:26:31.891Z,15.50
2022-11-27T09:29:01.707Z,9.53
2022-11-27T09:31:30.073Z,11.67
2022-11-27T09:33:59.589Z,11.93
2022-11-27T09:36:31.873Z,10.80
2022-11-27T09:39:03.774Z,15.30
2022-11-27T09:41:43.299Z,12.37
2022-11-27T09:44:33.742Z,10.80
2022-11-27T09:47:09.096Z,9.50
2022-11-27T09:49:43.807Z,8.57
2022-11-27T09:52:19.708Z,9.53
2022-11-27T09:54:57.930Z,9.50
2022-11-27T09:57:30.563Z,9.20
2022-11-27T10:00:03.419Z,10.30
2022-11-27T10:02:37.871Z,7.37
2022-11-27T10:05:16.984Z,8.17
2022-11-27T10:08:06.642Z,6.27
2022-11-27T10:10:48.765Z,7.80
2022-11-27T10:13:33.215Z,7.20
2022-11-27T10:16:07.117Z,7.60
2022-11-27T10:18:41.743Z,8.07
2022-11-27T10:21:17.755Z,8.00
2022-11-27T10:23:54.204Z,8.90
2022-11-27T10:26:32.561Z,9.73
2022-11-27T10:29:11.138Z,8.00
2022-11-27T10:31:46.430Z,10.37
2022-11-27T10:34:29.091Z,9.20
2022-11-27T10:36:59.200Z,7.60
2022-11-27T10:39:34.053Z,13.30
2022-11-27T10:42:12.689Z,9.20
2022-11-27T10:44:44.890Z,9.93
2022-11-27T10:47:15.135Z,9.83
2022-11-27T10:49:44.356Z,9.23
2022-11-27T10:52:16.184Z,10.30
2022-11-27T10:54:47.223Z,12.97
2022-11-27T10:57:39.133Z,9.30
2022-11-27T11:00:15.218Z,11.17
2022-11-27T11:02:43.889Z,12.10
2022-11-27T11:05:34.971Z,14.83
2022-11-27T11:08:06.495Z,11.97
2022-11-27T11:10:38.210Z,9.87
2022-11-27T11:13:20.249Z,12.57
2022-11-27T11:15:55.048Z,10.13
2022-11-27T11:18:26.188Z,14.07
2022-11-27T11:20:56.085Z,10.30
2022-11-27T11:23:34.480Z,13.87
2022-11-27T11:26:06.869Z,11.60
2022-11-27T11:28:45.850Z,9.87
2022-11-27T11:31:18.331Z,8.80
2022-11-27T11:33:54.027Z,12.67
2022-11-27T11:36:22.948Z,11.10
2022-11-27T11:38:52.801Z,8.90
2022-11-27T11:41:24.526Z,8.87
2022-11-27T11:44:02.225Z,8.90
2022-11-27T11:46:33.077Z,12.27
2022-11-27T11:49:03.834Z,13.43
2022-11-27T11:51:48.221Z,12.53
2022-11-27T11:54:30.777Z,12.50
2022-11-27T11:57:03.137Z,11.60
2022-11-27T11:59:45.277Z,11.63
2022-11-27T12:02:39.131Z,13.73
2022-11-27T12:05:33.601Z,11.73
2022-11-27T12:08:22.275Z,12.80
2022-11-27T12:10:59.512Z,15.10
2022-11-27T12:13:41.010Z,15.97
2022-11-27T12:16:17.241Z,12.17
2022-11-27T12:18:58.040Z,14.93
2022-11-27T12:21:38.212Z,13.60
2022-11-27T12:24:23.552Z,16.70
2022-11-27T12:27:08.356Z,14.30
2022-11-27T12:30:08.637Z,15.33
2022-11-27T12:33:05.412Z,13.40
2022-11-27T12:35:35.350Z,13.77
2022-11-27T12:38:29.464Z,14.03
2022-11-27T12:41:34.649Z,14.07
2022-11-27T12:44:03.343Z,14.67
2022-11-27T12:46:39.712Z,10.40
2022-11-27T12:49:18.011Z,13.67
2022-11-27T12:51:51.645Z,13.23
2022-11-27T12:54:27.011Z,16.50
2022-11-27T12:56:58.875Z,12.07
2022-11-27T12:59:34.009Z,15.57
2022-11-27T13:02:13.993Z,10.57
2022-11-27T13:04:51.294Z,10.97
2022-11-27T13:07:27.052Z,19.63
2022-11-27T13:10:00.717Z,11.30
2022-11-27T13:12:33.975Z,12.87
2022-11-27T13:15:05.772Z,15.17
2022-11-27T13:17:38.586Z,12.13
2022-11-27T13:20:18.049Z,12.07
2022-11-27T13:22:49.067Z,16.07
2022-11-27T13:25:17.486Z,16.93
2022-11-27T13:27:50.573Z,15.47
2022-11-27T13:30:22.761Z,16.40
2022-11-27T13:32:55.847Z,17.60
2022-11-27T13:35:30.283Z,19.17
2022-11-27T13:38:04.885Z,20.13
2022-11-27T13:40:41.797Z,15.80
2022-11-27T13:43:41.265Z,17.27
2022-11-27T13:46:15.006Z,17.03
2022-11-27T13:48:49.873Z,16.20
2022-11-27T13:51:28.398Z,14.10
2022-11-27T13:54:09.462Z,17.50
2022-11-27T13:56:40.584Z,14.67
2022-11-27T13:59:17.294Z,13.90
2022-11-27T14:01:59.331Z,15.60
2022-11-27T14:04:27.884Z,14.20
2022-11-27T14:07:06.331Z,13.20
2022-11-27T14:09:41.086Z,16.07
2022-11-27T14:12:19.122Z,14.43
2022-11-27T14:15:00.757Z,12.10
2022-11-27T14:17:36.318Z,18.37
2022-11-27T14:20:10.064Z,19.93
2022-11-27T14:23:10.436Z,16.67
2022-11-27T14:25:37.154Z,15.17
2022-11-27T14:28:15.335Z,19.33
2022-11-27T14:30:48.711Z,14.80
2022-11-27T14:33:22.395Z,14.50
2022-11-27T14:35:52.518Z,14.03
2022-11-27T14:38:22.858Z,15.40
2022-11-27T14:40:54.641Z,15.63
2022-11-27T14:43:26.318Z,17.40
2022-11-27T14:45:57.662Z,13.93
2022-11-27T14:48:27.721Z,15.30
2022-11-27T14:50:58.293Z,13.83
2022-11-27T14:53:29.230Z,13.00
2022-11-27T14:55:59.492Z,15.00
2022-11-27T14:58:30.003Z,13.63
2022-11-27T15:01:01.831Z,16.37
2022-11-27T15:03:30.800Z,17.10
2022-11-27T15:06:00.668Z,15.40
2022-11-27T15:08:35.965Z,12.53
2022-11-27T15:11:06.225Z,16.70
2022-11-27T15:13:38.053Z,12.10
2022-11-27T15:16:16.114Z,15.33
2022-11-27T15:18:49.434Z,14.17
2022-11-27T15:21:21.930Z,12.47
2022-11-27T15:23:52.958Z,15.07
2022-11-27T15:26:33.880Z,12.00
2022-11-27T15:29:03.414Z,10.50
2022-11-27T15:31:34.569Z,12.53
2022-11-27T15:34:06.350Z,10.73
2022-11-27T15:36:37.175Z,13.90
2022-11-27T15:39:19.317Z,13.93
2022-11-27T15:41:58.626Z,12.20
2022-11-27T15:44:28.454Z,9.77
2022-11-27T15:46:58.959Z,14.53
2022-11-27T15:49:28.007Z,13.03
2022-11-27T15:51:57.447Z,10.70
2022-11-27T15:54:29.748Z,10.70
2022-11-27T15:56:58.244Z,10.40
2022-11-27T15:59:27.439Z,9.80
2022-11-27T16:01:56.253Z,8.57
2022-11-27T16:04:24.870Z,10.57
2022-11-27T16:06:53.142Z,12.90
2022-11-27T16:09:21.238Z,12.53
2022-11-27T16:11:51.023Z,11.10
2022-11-27T16:14:19.734Z,12.57
2022-11-27T16:16:47.974Z,15.03
2022-11-27T16:19:17.164Z,15.57
2022-11-27T16:21:45.328Z,13.27
2022-11-27T16:24:15.601Z,11.20
2022-11-27T16:26:43.918Z,13.83
2022-11-27T16:29:13.790Z,13.67
2022-11-27T16:31:42.262Z,14.60
2022-11-27T16:34:10.450Z,11.80
2022-11-27T16:36:38.647Z,13.10
2022-11-27T16:39:06.694Z,10.73
2022-11-27T16:41:34.959Z,11.50
2022-11-27T16:44:03.418Z,10.73
2022-11-27T16:46:33.216Z,15.47
2022-11-27T16:49:01.642Z,13.00
2022-11-27T16:51:32.754Z,13.97
2022-11-27T16:54:02.067Z,14.67
2022-11-27T16:56:31.904Z,12.17
2022-11-27T16:59:03.359Z,17.40
2022-11-27T17:01:37.132Z,14.43
2022-11-27T17:04:09.054Z,13.90
2022-11-27T17:06:39.110Z,15.00
2022-11-27T17:09:09.048Z,11.60
2022-11-27T17:11:41.148Z,16.50
2022-11-27T17:14:10.588Z,14.57
2022-11-27T17:16:42.897Z,18.50
2022-11-27T17:19:13.659Z,15.73
2022-11-27T17:21:42.269Z,12.80
2022-11-27T17:24:15.399Z,14.30
2022-11-27T17:26:44.825Z,15.50
2022-11-27T17:29:14.430Z,15.27
2022-11-27T17:31:44.562Z,13.53
2022-11-27T17:34:14.779Z,13.77
2022-11-27T17:36:45.108Z,14.90
2022-11-27T17:39:15.261Z,13.60
2022-11-27T17:41:45.417Z,16.57
2022-11-27T17:44:13.736Z,16.67
2022-11-27T17:46:45.630Z,15.03
2022-11-27T17:49:13.660Z,14.77
2022-11-27T17:51:42.250Z,17.90
2022-11-27T17:54:11.817Z,15.70
2022-11-27T17:56:40.337Z,16.10
2022-11-27T17:59:08.410Z,14.60
2022-11-27T18:01:36.661Z,16.40
2022-11-27T18:04:07.514Z,19.80
2022-11-27T18:06:36.186Z,19.00
2022-11-27T18:09:05.481Z,14.83
2022-11-27T18:11:34.982Z,15.40
2022-11-27T18:14:03.778Z,20.43
2022-11-27T18:16:34.451Z,17.30
2022-11-27T18:19:05.941Z,13.93
2022-11-27T18:21:36.376Z,14.50
2022-11-27T18:27:09.876Z,18.60
2022-11-27T18:29:39.570Z,18.33
2022-11-27T18:32:08.471Z,16.40
2022-11-27T18:34:36.743Z,18.93
2022-11-27T18:37:06.672Z,20.80
2022-11-27T18:39:36.113Z,16.37
2022-11-27T18:42:05.189Z,17.23
2022-11-27T18:44:37.277Z,24.10
2022-11-27T18:47:11.323Z,20.17
2022-11-27T18:49:40.360Z,18.63
2022-11-27T18:52:10.852Z,20.60
2022-11-27T18:54:39.010Z,21.40
2022-11-27T18:57:07.556Z,18.43
2022-11-27T18:59:36.066Z,20.37
2022-11-27T19:02:05.204Z,25.23
2022-11-27T19:04:36.591Z,22.43
2022-11-27T19:07:05.376Z,20.20
2022-11-27T19:09:35.181Z,22.17
2022-11-27T19:12:03.540Z,21.27
2022-11-27T19:14:32.158Z,22.73
2022-11-27T19:17:00.413Z,21.07
2022-11-27T19:22:17.237Z,26.30
2022-11-27T19:24:46.928Z,30.63
2022-11-27T19:27:15.095Z,23.87
2022-11-27T19:29:43.636Z,28.57
2022-11-27T19:32:11.748Z,22.60
2022-11-27T19:34:40.173Z,28.17
2022-11-27T19:37:08.505Z,22.03
2022-11-27T19:39:36.679Z,23.97
2022-11-27T19:42:06.393Z,23.00
2022-11-27T19:44:34.604Z,21.23
2022-11-27T19:47:02.980Z,25.03
2022-11-27T19:49:31.882Z,22.53
2022-11-27T19:52:00.035Z,21.73
2022-11-27T19:54:28.814Z,19.77
2022-11-27T19:56:57.207Z,24.77
2022-11-27T19:59:27.559Z,22.00
2022-11-27T20:01:55.800Z,23.10
2022-11-27T20:04:24.228Z,25.83
2022-11-27T20:06:53.714Z,30.20
2022-11-27T20:09:22.093Z,21.03
2022-11-27T20:11:50.447Z,22.00
2022-11-27T20:14:19.575Z,22.17
2022-11-27T20:16:49.359Z,22.57
2022-11-27T20:19:17.786Z,16.43
2022-11-27T20:21:46.016Z,21.57
2022-11-27T20:24:14.765Z,19.10
2022-11-27T20:26:43.605Z,18.33
2022-11-27T20:29:12.607Z,22.47
2022-11-27T20:31:44.636Z,17.90
2022-11-27T20:34:18.819Z,20.13
2022-11-27T20:36:47.352Z,25.70
2022-11-27T20:39:20.861Z,18.10
2022-11-27T20:41:51.545Z,18.07
2022-11-27T20:44:19.771Z,19.70
2022-11-27T20:46:47.890Z,20.33
2022-11-27T20:49:18.016Z,15.80
2022-11-27T20:51:46.768Z,14.63
2022-11-27T20:54:14.983Z,20.00
2022-11-27T20:56:45.179Z,15.23
2022-11-27T20:59:13.886Z,17.17
2022-11-27T21:01:42.825Z,19.93
2022-11-27T21:04:22.042Z,16.90
2022-11-27T21:06:50.371Z,18.40
2022-11-27T21:09:19.586Z,17.10
2022-11-27T21:11:48.738Z,15.87
2022-11-27T21:14:17.961Z,23.10
2022-11-27T21:16:49.146Z,20.77
2022-11-27T21:19:19.673Z,16.10
2022-11-27T21:21:49.709Z,22.90
2022-11-27T21:24:18.984Z,16.50
2022-11-27T21:26:50.258Z,20.90
2022-11-27T21:29:24.918Z,20.73
2022-11-27T21:31:54.138Z,18.90
2022-11-27T21:34:22.492Z,18.00
2022-11-27T21:36:52.313Z,19.53
2022-11-27T21:39:21.489Z,18.57
2022-11-27T21:41:50.722Z,19.97
2022-11-27T21:44:19.282Z,15.50
2022-11-27T21:46:51.165Z,15.90
2022-11-27T21:49:21.585Z,18.43
2022-11-27T21:51:54.971Z,22.40
2022-11-27T21:54:23.874Z,15.07
2022-11-27T21:56:52.996Z,19.13
2022-11-27T21:59:22.483Z,19.27
2022-11-27T22:01:51.208Z,20.70
2022-11-27T22:04:21.119Z,19.30
2022-11-27T22:06:49.943Z,21.87
2022-11-27T22:09:21.088Z,18.97
2022-11-27T22:11:50.922Z,18.00
2022-11-27T22:14:20.395Z,19.00
2022-11-27T22:16:49.713Z,19.70
2022-11-27T22:19:22.180Z,16.93
2022-11-27T22:22:00.652Z,16.70
2022-11-27T22:24:34.490Z,22.57
2022-11-27T22:27:03.239Z,17.77
2022-11-27T22:29:32.100Z,22.67
2022-11-27T22:32:03.541Z,18.77
2022-11-27T22:34:32.641Z,18.60
2022-11-27T22:37:02.774Z,21.30
2022-11-27T22:39:36.412Z,21.60
2022-11-27T22:42:18.302Z,21.10
2022-11-27T22:44:48.289Z,17.40
2022-11-27T22:47:17.373Z,20.13
2022-11-27T22:49:50.472Z,18.80
2022-11-27T22:52:22.955Z,21.20
2022-11-27T22:54:53.986Z,18.37
2022-11-27T22:57:24.164Z,16.20
2022-11-27T22:59:54.999Z,20.20
2022-11-27T23:02:24.656Z,16.63
2022-11-27T23:04:56.382Z,19.30
2022-11-27T23:07:27.391Z,20.53
2022-11-27T23:09:59.793Z,21.53
2022-11-27T23:12:30.004Z,18.47
2022-11-27T23:14:58.839Z,19.47
2022-11-27T23:17:29.236Z,19.93
2022-11-27T23:19:58.919Z,18.10
2022-11-27T23:22:30.285Z,20.70
2022-11-27T23:25:00.379Z,18.23
2022-11-27T23:27:31.439Z,17.93
2022-11-27T23:30:02.327Z,16.60
2022-11-27T23:32:33.051Z,21.90
2022-11-27T23:35:03.130Z,20.80
2022-11-27T23:37:32.647Z,23.13
2022-11-27T23:40:04.314Z,19.80
2022-11-27T23:42:34.424Z,18.70
2022-11-27T23:45:03.242Z,18.27
2022-11-27T23:47:32.371Z,21.77
2022-11-27T23:50:01.827Z,17.83
2022-11-27T23:52:31.015Z,23.43
2022-11-27T23:55:00.309Z,21.93
2022-11-27T23:57:33.000Z,22.50
